createdAt,value
2023-04-27T00:02:16.591Z,55.40
2023-04-27T00:04:45.115Z,55.70
2023-04-27T00:07:12.496Z,56.10
2023-04-27T00:09:39.489Z,56.20
2023-04-27T00:12:07.301Z,56.30
2023-04-27T00:14:34.304Z,56.40
2023-04-27T00:17:01.332Z,56.30
2023-04-27T00:19:28.648Z,56.30
2023-04-27T00:21:58.066Z,56.10
2023-04-27T00:24:25.201Z,56.10
2023-04-27T00:26:52.431Z,56.00
2023-04-27T00:29:19.565Z,56.30
2023-04-27T00:31:46.551Z,56.40
2023-04-27T00:34:13.696Z,56.40
2023-04-27T00:36:40.862Z,56.50
2023-04-27T00:39:09.357Z,56.20
2023-04-27T00:41:42.230Z,55.70
2023-04-27T00:44:09.347Z,56.20
2023-04-27T00:46:37.395Z,56.40
2023-04-27T00:49:04.494Z,56.40
2023-04-27T00:51:32.378Z,56.30
2023-04-27T00:54:00.068Z,56.00
2023-04-27T00:56:27.095Z,56.00
2023-04-27T00:58:54.229Z,56.20
2023-04-27T01:01:21.290Z,56.20
2023-04-27T01:03:49.066Z,56.20
2023-04-27T01:06:16.300Z,56.30
2023-04-27T01:08:43.415Z,56.00
2023-04-27T01:11:10.519Z,56.10
2023-04-27T01:13:37.536Z,56.10
2023-04-27T01:16:04.774Z,56.30
2023-04-27T01:18:32.048Z,56.60
2023-04-27T01:21:00.619Z,56.70
2023-04-27T01:23:27.749Z,56.60
2023-04-27T01:25:54.732Z,56.60
2023-04-27T01:28:21.795Z,56.60
2023-04-27T01:30:48.882Z,57.40
2023-04-27T01:33:16.245Z,57.80
2023-04-27T01:35:43.362Z,58.00
2023-04-27T01:38:10.532Z,58.50
2023-04-27T01:40:37.891Z,59.10
2023-04-27T01:43:05.122Z,59.00
2023-04-27T01:45:32.244Z,58.30
2023-04-27T01:47:59.244Z,57.80
2023-04-27T01:50:26.419Z,57.70
2023-04-27T01:52:53.458Z,57.40
2023-04-27T01:55:20.608Z,57.10
2023-04-27T01:57:47.643Z,57.00
2023-04-27T02:00:14.868Z,57.20
2023-04-27T02:02:42.266Z,57.10
2023-04-27T02:05:09.956Z,57.10
2023-04-27T02:07:36.986Z,56.90
2023-04-27T02:10:04.414Z,56.90
2023-04-27T02:12:34.893Z,57.00
2023-04-27T02:15:03.441Z,57.20
2023-04-27T02:17:31.442Z,57.60
2023-04-27T02:19:58.527Z,57.60
2023-04-27T02:22:25.609Z,57.70
2023-04-27T02:24:52.625Z,57.70
2023-04-27T02:27:19.629Z,57.80
2023-04-27T02:30:13.089Z,57.70
2023-04-27T02:32:41.628Z,57.50
2023-04-27T02:35:09.390Z,57.10
2023-04-27T02:37:37.004Z,57.50
2023-04-27T02:40:05.035Z,57.60
2023-04-27T02:42:32.106Z,58.00
2023-04-27T02:44:59.177Z,58.10
2023-04-27T02:47:26.884Z,57.90
2023-04-27T02:49:53.924Z,57.80
2023-04-27T02:52:20.908Z,58.10
2023-04-27T02:54:47.953Z,58.60
2023-04-27T02:57:15.077Z,59.10
2023-04-27T02:59:42.128Z,59.50
2023-04-27T03:02:09.593Z,59.70
2023-04-27T03:04:36.916Z,59.80
2023-04-27T03:07:04.708Z,60.00
2023-04-27T03:09:31.752Z,60.10
2023-04-27T03:11:59.003Z,59.80
2023-04-27T03:14:26.064Z,59.50
2023-04-27T03:16:54.494Z,59.00
2023-04-27T03:19:21.499Z,58.80
2023-04-27T03:21:48.522Z,58.90
2023-04-27T03:24:15.842Z,58.90
2023-04-27T03:26:42.842Z,58.60
2023-04-27T03:29:10.214Z,58.30
2023-04-27T03:31:37.620Z,58.30
2023-04-27T03:34:04.680Z,58.50
2023-04-27T03:36:32.380Z,58.90
2023-04-27T03:38:59.390Z,58.90
2023-04-27T03:41:26.478Z,58.90
2023-04-27T03:43:53.680Z,58.70
2023-04-27T03:46:20.866Z,58.50
2023-04-27T03:48:47.932Z,58.40
2023-04-27T03:51:15.295Z,58.20
2023-04-27T03:53:42.353Z,58.20
2023-04-27T03:56:09.570Z,58.20
2023-04-27T03:58:36.621Z,58.30
2023-04-27T04:01:03.672Z,58.20
2023-04-27T04:03:30.993Z,58.40
2023-04-27T04:05:58.269Z,58.30
2023-04-27T04:08:25.270Z,58.40
2023-04-27T04:10:52.288Z,58.50
2023-04-27T04:13:19.498Z,58.60
2023-04-27T04:15:46.640Z,58.40
2023-04-27T04:18:13.789Z,58.30
2023-04-27T04:20:41.049Z,58.10
2023-04-27T04:23:08.092Z,57.90
2023-04-27T04:25:35.426Z,58.00
2023-04-27T04:28:02.603Z,57.90
2023-04-27T04:30:29.679Z,57.50
2023-04-27T04:32:56.959Z,57.30
2023-04-27T04:35:23.947Z,57.40
2023-04-27T04:37:51.436Z,57.30
2023-04-27T04:40:19.318Z,57.20
2023-04-27T04:42:46.915Z,57.10
2023-04-27T04:45:14.211Z,57.00
2023-04-27T04:47:41.644Z,56.70
2023-04-27T04:50:13.307Z,56.40
2023-04-27T04:52:40.419Z,56.40
2023-04-27T04:55:07.639Z,56.30
2023-04-27T04:57:34.733Z,56.20
2023-04-27T05:00:02.100Z,56.30
2023-04-27T05:02:29.539Z,56.20
2023-04-27T05:04:57.641Z,56.20
2023-04-27T05:07:25.213Z,56.00
2023-04-27T05:09:52.599Z,55.90
2023-04-27T05:12:19.684Z,55.70
2023-04-27T05:14:46.810Z,55.30
2023-04-27T05:17:14.022Z,54.80
2023-04-27T05:19:41.144Z,54.70
2023-04-27T05:22:09.154Z,55.50
2023-04-27T05:24:36.246Z,55.10
2023-04-27T05:27:04.097Z,54.80
2023-04-27T05:29:31.249Z,54.70
2023-04-27T05:31:59.029Z,55.00
2023-04-27T05:34:26.121Z,54.40
2023-04-27T05:36:59.316Z,53.80
2023-04-27T05:39:30.803Z,53.80
2023-04-27T05:42:01.611Z,53.70
2023-04-27T05:44:29.603Z,53.30
2023-04-27T05:46:56.650Z,53.40
2023-04-27T05:49:23.904Z,53.40
2023-04-27T05:51:54.731Z,53.50
2023-04-27T05:54:22.245Z,53.80
2023-04-27T05:56:50.932Z,53.50
2023-04-27T05:59:18.078Z,53.40
2023-04-27T06:01:45.229Z,53.50
2023-04-27T06:04:12.608Z,53.40
2023-04-27T06:06:39.684Z,53.10
2023-04-27T06:09:06.789Z,53.00
2023-04-27T06:11:33.805Z,52.50
2023-04-27T06:14:00.870Z,52.00
2023-04-27T06:16:28.464Z,51.70
2023-04-27T06:18:55.668Z,50.80
2023-04-27T06:21:22.896Z,50.40
2023-04-27T06:23:50.032Z,50.20
2023-04-27T06:26:17.096Z,49.80
2023-04-27T06:28:51.892Z,48.60
2023-04-27T06:31:19.062Z,48.50
2023-04-27T06:33:46.335Z,48.40
2023-04-27T06:36:13.798Z,48.20
2023-04-27T06:38:44.030Z,48.90
2023-04-27T06:41:11.385Z,49.20
2023-04-27T06:43:38.744Z,49.30
2023-04-27T06:46:05.961Z,48.60
2023-04-27T06:48:33.114Z,48.00
2023-04-27T06:51:00.231Z,48.20
2023-04-27T06:53:27.244Z,47.90
2023-04-27T06:55:54.581Z,46.50
2023-04-27T06:58:22.653Z,46.10
2023-04-27T07:00:50.029Z,45.60
2023-04-27T07:03:17.392Z,45.00
2023-04-27T07:05:44.792Z,44.80
2023-04-27T07:08:12.542Z,44.40
2023-04-27T07:10:39.786Z,43.60
2023-04-27T07:13:09.217Z,43.20
2023-04-27T07:18:04.409Z,42.60
2023-04-27T07:20:32.130Z,42.80
2023-04-27T07:22:59.309Z,43.30
2023-04-27T07:25:26.870Z,43.70
2023-04-27T07:27:55.129Z,44.00
2023-04-27T07:30:23.558Z,43.30
2023-04-27T07:32:54.885Z,43.00
2023-04-27T07:35:22.528Z,43.60
2023-04-27T07:37:49.858Z,44.30
2023-04-27T07:40:17.273Z,44.70
2023-04-27T07:42:45.105Z,44.60
2023-04-27T07:45:12.573Z,44.80
2023-04-27T07:47:39.851Z,44.50
2023-04-27T07:50:07.819Z,44.20
2023-04-27T07:52:34.957Z,43.80
2023-04-27T07:55:02.211Z,43.10
2023-04-27T07:57:29.452Z,42.30
2023-04-27T07:59:57.293Z,41.60
2023-04-27T08:02:24.579Z,40.40
2023-04-27T08:04:51.995Z,40.00
2023-04-27T08:07:19.808Z,39.10
2023-04-27T08:09:47.006Z,38.60
2023-04-27T08:12:14.932Z,38.00
2023-04-27T08:14:42.237Z,37.90
2023-04-27T08:17:11.709Z,34.30
2023-04-27T08:19:39.248Z,33.60
2023-04-27T08:22:06.474Z,33.80
2023-04-27T08:24:36.647Z,34.40
2023-04-27T08:28:04.119Z,35.00
2023-04-27T08:30:31.348Z,35.10
2023-04-27T08:32:58.504Z,33.50
2023-04-27T08:35:25.611Z,33.90
2023-04-27T08:37:54.609Z,34.10
2023-04-27T08:41:20.410Z,34.30
2023-04-27T08:43:59.708Z,34.20
2023-04-27T08:47:02.995Z,32.80
2023-04-27T09:00:39.743Z,32.10
2023-04-27T09:03:07.183Z,32.10
2023-04-27T09:05:34.956Z,32.10
2023-04-27T09:08:05.786Z,32.00
2023-04-27T09:10:45.166Z,32.30
2023-04-27T09:13:12.439Z,32.40
2023-04-27T09:15:50.633Z,32.80
2023-04-27T09:18:23.393Z,31.90
2023-04-27T09:20:52.099Z,32.00
2023-04-27T09:23:46.890Z,31.80
2023-04-27T09:26:23.548Z,32.30
2023-04-27T09:28:58.587Z,31.70
2023-04-27T09:31:36.379Z,31.20
2023-04-27T09:34:06.131Z,31.20
2023-04-27T09:36:33.542Z,30.50
2023-04-27T09:39:05.103Z,30.40
2023-04-27T09:41:33.720Z,31.40
2023-04-27T09:44:01.996Z,30.90
2023-04-27T09:46:30.231Z,30.90
2023-04-27T09:48:57.703Z,30.70
2023-04-27T09:51:24.851Z,30.50
2023-04-27T09:53:57.901Z,29.80
2023-04-27T09:56:47.908Z,29.20
2023-04-27T09:59:55.951Z,29.10
2023-04-27T10:02:25.688Z,29.10
2023-04-27T10:05:09.407Z,28.90
2023-04-27T10:07:38.905Z,29.30
2023-04-27T10:10:07.573Z,28.80
2023-04-27T10:13:20.631Z,28.50
2023-04-27T10:15:47.842Z,29.40
2023-04-27T10:18:35.518Z,29.30
2023-04-27T10:21:14.313Z,28.20
2023-04-27T10:23:51.470Z,29.00
2023-04-27T10:26:28.484Z,28.40
2023-04-27T10:29:07.894Z,28.60
2023-04-27T10:31:35.240Z,28.00
2023-04-27T10:34:09.035Z,27.90
2023-04-27T10:36:39.670Z,27.50
2023-04-27T10:39:19.916Z,27.50
2023-04-27T10:41:53.826Z,27.70
2023-04-27T10:44:30.293Z,27.90
2023-04-27T10:47:01.655Z,27.50
2023-04-27T10:49:29.672Z,28.00
2023-04-27T10:51:58.894Z,28.60
2023-04-27T10:54:30.132Z,27.90
2023-04-27T10:57:17.397Z,27.30
2023-04-27T10:59:52.250Z,27.00
2023-04-27T11:02:26.845Z,26.60
2023-04-27T11:04:54.272Z,26.40
2023-04-27T11:07:28.517Z,26.50
2023-04-27T11:09:56.081Z,27.10
2023-04-27T11:12:24.290Z,26.90
2023-04-27T11:14:59.382Z,27.30
2023-04-27T11:17:46.025Z,27.90
2023-04-27T11:20:13.646Z,28.60
2023-04-27T11:22:48.453Z,27.60
2023-04-27T11:25:16.999Z,27.40
2023-04-27T11:27:45.742Z,27.30
2023-04-27T11:30:22.972Z,27.90
2023-04-27T11:32:50.301Z,29.10
2023-04-27T11:35:18.745Z,28.10
2023-04-27T11:37:56.352Z,28.50
2023-04-27T11:40:24.654Z,28.20
2023-04-27T11:42:58.751Z,28.00
2023-04-27T11:45:28.315Z,26.60
2023-04-27T11:47:55.702Z,26.80
2023-04-27T11:50:27.213Z,28.00
2023-04-27T11:52:54.603Z,28.00
2023-04-27T11:55:22.346Z,27.60
2023-04-27T11:57:49.411Z,28.30
2023-04-27T12:00:25.552Z,28.20
2023-04-27T12:02:52.973Z,28.70
2023-04-27T12:10:45.729Z,27.50
2023-04-27T12:13:14.378Z,28.40
2023-04-27T12:15:42.797Z,28.30
2023-04-27T12:18:11.249Z,27.80
2023-04-27T12:20:39.613Z,27.90
2023-04-27T12:23:06.730Z,27.10
2023-04-27T12:25:33.864Z,27.70
2023-04-27T12:28:20.884Z,27.80
2023-04-27T12:50:11.252Z,28.10
2023-04-27T12:52:38.849Z,27.20
2023-04-27T12:55:28.937Z,27.20
2023-04-27T12:57:59.354Z,27.50
2023-04-27T13:00:32.351Z,28.00
2023-04-27T13:03:02.768Z,27.50
2023-04-27T13:05:32.265Z,27.80
2023-04-27T13:07:59.636Z,28.30
2023-04-27T13:10:26.891Z,28.40
2023-04-27T13:12:54.744Z,27.90
2023-04-27T13:15:21.912Z,27.10
2023-04-27T13:17:49.248Z,26.40
2023-04-27T13:20:16.491Z,27.50
2023-04-27T13:22:43.833Z,27.30
2023-04-27T13:25:11.178Z,27.00
2023-04-27T13:27:38.621Z,27.80
2023-04-27T13:30:07.116Z,27.40
2023-04-27T13:32:34.523Z,28.10
2023-04-27T13:35:01.625Z,28.00
2023-04-27T13:37:28.857Z,27.00
2023-04-27T13:39:56.143Z,26.50
2023-04-27T13:42:29.511Z,26.50
2023-04-27T13:44:57.491Z,27.90
2023-04-27T13:47:24.779Z,27.30
2023-04-27T13:49:52.109Z,27.20
2023-04-27T13:52:19.470Z,26.90
2023-04-27T13:54:46.633Z,27.90
2023-04-27T14:03:19.921Z,27.60
2023-04-27T14:24:49.866Z,28.70
2023-04-27T14:27:20.789Z,28.90
2023-04-27T14:29:48.420Z,28.80
2023-04-27T14:32:20.076Z,29.30
2023-04-27T14:34:48.242Z,29.70
2023-04-27T14:37:15.765Z,29.30
2023-04-27T14:39:49.438Z,29.00
2023-04-27T14:46:04.776Z,29.70
2023-04-27T14:51:32.738Z,29.70
2023-04-27T14:54:06.424Z,29.50
2023-04-27T16:31:41.373Z,31.40
2023-04-27T16:34:18.822Z,31.30
2023-04-27T16:39:42.075Z,31.80
2023-04-27T16:42:14.386Z,32.10
2023-04-27T16:44:42.465Z,32.20
2023-04-27T16:47:09.887Z,32.30
2023-04-27T16:49:38.105Z,32.70
2023-04-27T16:52:06.259Z,32.60
2023-04-27T16:57:32.144Z,32.70
2023-04-27T17:00:03.259Z,32.90
2023-04-27T17:02:30.951Z,33.00
2023-04-27T17:05:00.887Z,33.40
2023-04-27T17:07:33.230Z,33.50
2023-04-27T17:10:02.912Z,33.50
2023-04-27T17:12:30.114Z,33.40
2023-04-27T17:18:05.554Z,33.70
2023-04-27T17:20:34.723Z,34.20
2023-04-27T17:23:05.155Z,34.40
2023-04-27T17:25:35.004Z,34.30
2023-04-27T17:28:03.166Z,34.40
2023-04-27T17:30:30.622Z,34.50
2023-04-27T17:32:58.137Z,35.00
2023-04-27T17:35:26.309Z,35.00
2023-04-27T17:37:54.239Z,35.10
2023-04-27T18:16:55.190Z,40.00
2023-04-27T18:19:44.397Z,39.70
2023-04-27T18:22:23.248Z,39.60
2023-04-27T18:36:13.243Z,40.40
2023-04-27T18:38:40.869Z,40.80
2023-04-27T18:41:17.061Z,41.20
2023-04-27T18:43:44.590Z,41.30
2023-04-27T18:46:12.147Z,41.50
2023-04-27T18:48:39.464Z,41.50
2023-04-27T18:51:08.542Z,41.50
2023-04-27T18:53:35.982Z,41.40
2023-04-27T18:56:03.655Z,41.70
2023-04-27T18:58:32.134Z,41.80
2023-04-27T19:01:00.067Z,41.90
2023-04-27T19:03:27.929Z,42.00
2023-04-27T19:05:59.792Z,42.30
2023-04-27T19:08:28.453Z,42.50
2023-04-27T19:10:55.776Z,42.90
2023-04-27T19:13:28.770Z,42.90
2023-04-27T19:15:57.095Z,43.40
2023-04-27T19:18:24.368Z,43.80
2023-04-27T19:20:52.301Z,43.90
2023-04-27T19:23:20.187Z,44.20
2023-04-27T19:25:48.697Z,44.60
2023-04-27T19:28:19.649Z,44.80
2023-04-27T19:30:49.529Z,45.00
2023-04-27T19:33:19.731Z,44.80
2023-04-27T19:35:47.872Z,45.30
2023-04-27T19:38:18.494Z,45.50
2023-04-27T19:40:47.446Z,45.80
2023-04-27T19:43:15.541Z,45.70
2023-04-27T19:45:44.124Z,45.90
2023-04-27T19:48:11.580Z,46.30
2023-04-27T19:50:42.195Z,46.50
2023-04-27T19:53:10.007Z,46.70
2023-04-27T19:55:38.052Z,47.10
2023-04-27T19:58:06.262Z,47.50
2023-04-27T20:00:33.957Z,48.00
2023-04-27T20:03:01.630Z,48.10
2023-04-27T20:05:29.751Z,48.10
2023-04-27T20:07:57.642Z,48.00
2023-04-27T20:10:25.502Z,48.10
2023-04-27T20:12:56.853Z,48.20
2023-04-27T20:15:25.249Z,48.50
2023-04-27T20:17:54.582Z,48.80
2023-04-27T20:20:21.975Z,49.10
2023-04-27T20:22:49.788Z,49.30
2023-04-27T20:25:20.006Z,49.30
2023-04-27T20:27:50.911Z,49.40
2023-04-27T20:30:18.325Z,49.40
2023-04-27T20:32:46.971Z,49.30
2023-04-27T20:35:14.703Z,49.30
2023-04-27T20:37:43.955Z,49.20
2023-04-27T20:40:14.710Z,49.10
2023-04-27T20:43:16.461Z,49.30
2023-04-27T20:45:43.922Z,49.70
2023-04-27T20:54:39.341Z,50.40
2023-04-27T20:57:38.929Z,50.40
2023-04-27T21:03:06.955Z,50.40
2023-04-27T21:25:26.532Z,51.10
2023-04-27T21:33:35.019Z,51.50
2023-04-27T21:45:25.277Z,51.40
2023-04-27T21:54:14.371Z,51.70
2023-04-27T23:11:43.061Z,54.20
2023-04-27T23:34:04.953Z,54.50
2023-04-27T23:49:35.192Z,55.40
2023-04-27T23:52:02.369Z,55.60
2023-04-27T23:54:32.708Z,55.60
2023-04-27T23:56:59.827Z,55.50
2023-04-27T23:59:26.964Z,55.30
